createdAt,value
2019-03-15T00:00:24.685Z,15.80
2019-03-15T00:01:24.666Z,16.40
2019-03-15T00:02:24.662Z,19.50
2019-03-15T00:03:25.477Z,17.60
2019-03-15T00:04:24.602Z,18.60
2019-03-15T00:05:25.536Z,19.00
2019-03-15T00:06:25.332Z,15.40
2019-03-15T00:07:24.539Z,17.50
2019-03-15T00:08:24.519Z,17.00
2019-03-15T00:09:25.006Z,16.10
2019-03-15T00:10:24.476Z,18.40
2019-03-15T00:11:24.461Z,16.30
2019-03-15T00:12:24.977Z,16.70
2019-03-15T00:13:24.415Z,18.20
2019-03-15T00:14:24.398Z,17.70
2019-03-15T00:15:25.467Z,16.60
2019-03-15T00:16:24.364Z,17.60
2019-03-15T00:17:24.997Z,17.90
2019-03-15T00:18:24.338Z,18.40
2019-03-15T00:19:24.296Z,19.50
2019-03-15T00:20:24.281Z,17.90
2019-03-15T00:21:24.277Z,16.50
2019-03-15T00:22:24.259Z,18.80
2019-03-15T00:23:24.231Z,18.50
2019-03-15T00:24:24.186Z,17.50
2019-03-15T00:25:24.167Z,19.40
2019-03-15T00:26:24.225Z,15.60
2019-03-15T00:27:24.120Z,19.50
2019-03-15T00:28:24.115Z,19.00
2019-03-15T00:29:24.169Z,17.00
2019-03-15T00:30:24.057Z,18.40
2019-03-15T00:31:24.038Z,16.20
2019-03-15T00:32:24.030Z,16.90
2019-03-15T00:33:24.507Z,18.50
2019-03-15T00:34:23.973Z,16.30
2019-03-15T00:35:23.950Z,17.00
2019-03-15T00:36:23.931Z,14.80
2019-03-15T00:37:23.911Z,18.80
2019-03-15T00:38:23.998Z,17.00
2019-03-15T00:39:23.882Z,16.00
2019-03-15T00:40:23.855Z,19.80
2019-03-15T00:41:23.841Z,15.30
2019-03-15T00:42:23.808Z,13.50
2019-03-15T00:43:23.781Z,21.40
2019-03-15T00:44:23.782Z,16.90
2019-03-15T00:45:23.738Z,17.60
2019-03-15T00:46:23.900Z,17.70
2019-03-15T00:47:23.698Z,15.40
2019-03-15T00:48:23.684Z,14.80
2019-03-15T00:49:23.658Z,16.30
2019-03-15T00:50:23.632Z,15.20
2019-03-15T00:51:23.634Z,17.30
2019-03-15T00:52:23.596Z,17.90
2019-03-15T00:53:23.576Z,16.50
2019-03-15T00:54:23.554Z,17.60
2019-03-15T00:55:23.529Z,14.90
2019-03-15T00:56:23.515Z,16.70
2019-03-15T00:57:23.510Z,16.90
2019-03-15T00:58:23.469Z,14.70
2019-03-15T00:59:24.032Z,14.40
2019-03-15T01:00:23.424Z,17.20
2019-03-15T01:01:23.409Z,15.20
2019-03-15T01:02:23.386Z,13.40
2019-03-15T01:03:23.383Z,16.20
2019-03-15T01:04:24.004Z,16.90
2019-03-15T01:05:23.352Z,17.50
2019-03-15T01:06:23.311Z,14.00
2019-03-15T01:07:24.022Z,15.20
2019-03-15T01:08:23.991Z,16.50
2019-03-15T01:09:23.231Z,11.50
2019-03-15T01:10:23.220Z,16.40
2019-03-15T01:11:23.196Z,16.00
2019-03-15T01:12:23.178Z,16.40
2019-03-15T01:13:23.148Z,13.20
2019-03-15T01:14:24.979Z,16.30
2019-03-15T01:15:23.110Z,12.80
2019-03-15T01:16:23.089Z,16.80
2019-03-15T01:17:23.072Z,18.30
2019-03-15T01:18:23.050Z,15.20
2019-03-15T01:19:23.028Z,16.90
2019-03-15T01:20:23.023Z,18.20
2019-03-15T01:21:22.987Z,17.00
2019-03-15T01:22:22.976Z,17.20
2019-03-15T01:23:22.961Z,13.40
2019-03-15T01:24:23.522Z,15.50
2019-03-15T01:25:22.903Z,14.90
2019-03-15T01:26:22.888Z,13.80
2019-03-15T01:27:22.885Z,14.40
2019-03-15T01:28:23.053Z,15.90
2019-03-15T01:29:22.822Z,18.40
2019-03-15T01:30:22.794Z,14.10
2019-03-15T01:31:22.779Z,16.30
2019-03-15T01:32:22.773Z,14.60
2019-03-15T01:33:22.735Z,14.80
2019-03-15T01:34:22.718Z,15.60
2019-03-15T01:35:22.692Z,12.30
2019-03-15T01:36:22.677Z,13.10
2019-03-15T01:37:24.488Z,12.70
2019-03-15T01:38:22.650Z,14.90
2019-03-15T01:39:22.624Z,13.00
2019-03-15T01:40:22.597Z,16.50
2019-03-15T01:41:22.569Z,14.30
2019-03-15T01:42:22.546Z,14.30
2019-03-15T01:43:22.530Z,15.40
2019-03-15T01:44:22.498Z,13.40
2019-03-15T01:45:22.501Z,13.20
2019-03-15T01:46:22.479Z,14.40
2019-03-15T01:47:23.134Z,13.40
2019-03-15T01:48:22.421Z,16.10
2019-03-15T01:49:22.416Z,14.60
2019-03-15T01:50:22.378Z,14.50
2019-03-15T01:51:23.000Z,14.50
2019-03-15T01:52:22.337Z,12.00
2019-03-15T01:53:23.442Z,13.90
2019-03-15T01:54:22.293Z,13.50
2019-03-15T01:55:22.275Z,12.80
2019-03-15T01:56:22.254Z,14.90
2019-03-15T01:57:22.330Z,14.60
2019-03-15T01:58:22.212Z,15.10
2019-03-15T01:59:23.004Z,13.30
2019-03-15T02:00:22.167Z,16.30
2019-03-15T02:01:22.163Z,16.10
2019-03-15T02:02:22.390Z,14.00
2019-03-15T02:03:22.112Z,14.00
2019-03-15T02:04:22.084Z,14.40
2019-03-15T02:05:22.060Z,13.80
2019-03-15T02:06:23.986Z,15.30
2019-03-15T02:07:22.016Z,15.20
2019-03-15T02:08:22.013Z,14.40
2019-03-15T02:09:21.975Z,13.10
2019-03-15T02:10:22.583Z,12.50
2019-03-15T02:11:21.935Z,13.50
2019-03-15T02:12:21.990Z,15.50
2019-03-15T02:13:22.523Z,14.80
2019-03-15T02:14:21.871Z,15.70
2019-03-15T02:15:21.855Z,13.40
2019-03-15T02:16:21.845Z,10.90
2019-03-15T02:17:21.811Z,13.80
2019-03-15T02:18:21.787Z,14.80
2019-03-15T02:19:21.764Z,12.20
2019-03-15T02:20:22.521Z,11.70
2019-03-15T02:21:21.726Z,11.40
2019-03-15T02:22:21.699Z,13.40
2019-03-15T02:23:23.224Z,14.90
2019-03-15T02:24:21.675Z,12.40
2019-03-15T02:25:21.639Z,14.20
2019-03-15T02:26:21.613Z,12.20
2019-03-15T02:27:21.593Z,11.90
2019-03-15T02:28:21.574Z,11.80
2019-03-15T02:29:21.576Z,14.10
2019-03-15T02:30:21.567Z,11.30
2019-03-15T02:31:21.509Z,14.10
2019-03-15T02:32:21.519Z,15.20
2019-03-15T02:33:21.483Z,13.80
2019-03-15T02:34:21.459Z,10.20
2019-03-15T02:35:21.425Z,13.90
2019-03-15T02:36:21.424Z,13.50
2019-03-15T02:37:21.427Z,11.80
2019-03-15T02:38:21.383Z,14.90
2019-03-15T02:39:21.343Z,10.60
2019-03-15T02:40:21.378Z,13.10
2019-03-15T02:41:21.299Z,16.50
2019-03-15T02:42:21.287Z,12.90
2019-03-15T02:43:21.259Z,11.30
2019-03-15T02:44:21.989Z,12.80
2019-03-15T02:45:21.214Z,12.00
2019-03-15T02:46:21.207Z,11.90
2019-03-15T02:47:21.176Z,11.40
2019-03-15T02:48:21.171Z,11.90
2019-03-15T02:49:21.138Z,12.60
2019-03-15T02:50:21.110Z,13.50
2019-03-15T02:51:23.321Z,11.70
2019-03-15T02:52:21.065Z,14.00
2019-03-15T02:53:22.991Z,13.90
2019-03-15T02:54:21.043Z,12.40
2019-03-15T02:55:21.252Z,14.10
2019-03-15T02:56:20.982Z,12.10
2019-03-15T02:57:20.959Z,13.40
2019-03-15T02:58:21.057Z,11.10
2019-03-15T02:59:21.131Z,11.00
2019-03-15T03:00:20.915Z,13.00
2019-03-15T03:01:20.879Z,13.00
2019-03-15T03:02:20.855Z,11.80
2019-03-15T03:03:21.001Z,9.90
2019-03-15T03:04:20.828Z,13.40
2019-03-15T03:05:20.793Z,12.50
2019-03-15T03:06:20.772Z,13.00
2019-03-15T03:07:21.175Z,11.40
2019-03-15T03:08:20.727Z,12.10
2019-03-15T03:09:20.725Z,10.80
2019-03-15T03:10:20.710Z,10.90
2019-03-15T03:11:20.779Z,11.70
2019-03-15T03:12:20.648Z,9.50
2019-03-15T03:13:20.621Z,13.90
2019-03-15T03:14:20.606Z,12.10
2019-03-15T03:15:21.540Z,9.70
2019-03-15T03:16:20.576Z,12.60
2019-03-15T03:17:20.544Z,11.70
2019-03-15T03:18:20.534Z,9.40
2019-03-15T03:19:20.495Z,13.90
2019-03-15T03:20:21.207Z,11.90
2019-03-15T03:21:20.461Z,12.40
2019-03-15T03:22:20.454Z,12.80
2019-03-15T03:23:20.422Z,11.00
2019-03-15T03:24:20.425Z,10.90
2019-03-15T03:25:20.367Z,12.90
2019-03-15T03:26:20.350Z,12.40
2019-03-15T03:27:20.330Z,12.80
2019-03-15T03:28:20.308Z,10.00
2019-03-15T03:29:20.408Z,12.40
2019-03-15T03:30:20.268Z,13.00
2019-03-15T03:31:20.254Z,9.90
2019-03-15T03:32:20.224Z,10.10
2019-03-15T03:33:20.203Z,10.60
2019-03-15T03:34:21.035Z,11.10
2019-03-15T03:35:20.159Z,10.00
2019-03-15T03:36:20.138Z,11.20
2019-03-15T03:37:20.119Z,11.70
2019-03-15T03:38:20.098Z,11.50
2019-03-15T03:39:20.095Z,11.10
2019-03-15T03:40:21.140Z,11.60
2019-03-15T03:41:20.035Z,11.60
2019-03-15T03:42:20.186Z,11.20
2019-03-15T03:43:19.987Z,11.90
2019-03-15T03:44:19.969Z,10.20
2019-03-15T03:45:23.178Z,9.80
2019-03-15T03:46:19.945Z,10.30
2019-03-15T03:47:19.916Z,12.10
2019-03-15T03:48:19.885Z,14.30
2019-03-15T03:49:19.864Z,11.60
2019-03-15T03:50:19.844Z,12.10
2019-03-15T03:51:19.818Z,11.50
2019-03-15T03:52:20.504Z,12.50
2019-03-15T03:53:19.791Z,11.20
2019-03-15T03:54:19.755Z,12.60
2019-03-15T03:55:19.733Z,10.90
2019-03-15T03:56:19.722Z,9.30
2019-03-15T03:57:19.693Z,11.60
2019-03-15T03:58:19.689Z,9.40
2019-03-15T03:59:19.652Z,11.10
2019-03-15T04:00:19.628Z,12.10
2019-03-15T04:01:19.612Z,11.20
2019-03-15T04:02:19.596Z,10.90
2019-03-15T04:03:19.565Z,10.50
2019-03-15T04:04:19.566Z,11.50
2019-03-15T04:05:19.530Z,12.20
2019-03-15T04:06:19.509Z,11.80
2019-03-15T04:07:19.488Z,11.40
2019-03-15T04:08:19.465Z,11.70
2019-03-15T04:09:19.470Z,12.90
2019-03-15T04:10:19.421Z,10.80
2019-03-15T04:11:19.398Z,11.20
2019-03-15T04:12:19.394Z,10.60
2019-03-15T04:13:19.368Z,11.60
2019-03-15T04:14:19.368Z,10.40
2019-03-15T04:15:19.315Z,11.20
2019-03-15T04:16:19.290Z,13.20
2019-03-15T04:17:19.277Z,12.70
2019-03-15T04:18:19.252Z,12.20
2019-03-15T04:19:19.308Z,12.00
2019-03-15T04:20:20.503Z,11.20
2019-03-15T04:21:19.188Z,12.00
2019-03-15T04:22:19.167Z,12.80
2019-03-15T04:23:19.148Z,12.60
2019-03-15T04:24:19.125Z,11.60
2019-03-15T04:25:19.103Z,11.30
2019-03-15T04:26:19.096Z,11.50
2019-03-15T04:27:19.062Z,13.30
2019-03-15T04:28:19.042Z,11.30
2019-03-15T04:29:19.020Z,10.70
2019-03-15T04:30:19.002Z,11.10
2019-03-15T04:31:18.991Z,12.80
2019-03-15T04:32:18.959Z,12.80
2019-03-15T04:33:18.933Z,11.30
2019-03-15T04:34:18.931Z,12.00
2019-03-15T04:35:18.888Z,13.20
2019-03-15T04:36:18.870Z,11.60
2019-03-15T04:37:18.845Z,10.60
2019-03-15T04:38:18.843Z,11.60
2019-03-15T04:39:18.803Z,12.40
2019-03-15T04:40:18.787Z,10.60
2019-03-15T04:41:18.765Z,11.80
2019-03-15T04:42:18.738Z,10.70
2019-03-15T04:43:18.723Z,13.90
2019-03-15T04:44:18.717Z,12.60
2019-03-15T04:45:18.683Z,12.80
2019-03-15T04:46:18.678Z,11.90
2019-03-15T04:47:20.506Z,10.60
2019-03-15T04:48:18.617Z,13.50
2019-03-15T04:49:18.597Z,12.60
2019-03-15T04:50:19.511Z,14.40
2019-03-15T04:51:18.565Z,13.30
2019-03-15T04:52:18.553Z,14.20
2019-03-15T04:53:18.508Z,12.50
2019-03-15T04:54:18.488Z,12.30
2019-03-15T04:55:18.471Z,13.10
2019-03-15T04:56:18.442Z,14.10
2019-03-15T04:57:18.427Z,16.10
2019-03-15T04:58:18.427Z,15.70
2019-03-15T04:59:18.379Z,13.60
2019-03-15T05:00:18.367Z,16.10
2019-03-15T05:01:18.344Z,13.90
2019-03-15T05:02:18.323Z,17.50
2019-03-15T05:03:18.311Z,17.40
2019-03-15T05:04:18.276Z,14.70
2019-03-15T05:05:18.254Z,14.20
2019-03-15T05:06:18.232Z,14.80
2019-03-15T05:07:18.214Z,16.50
2019-03-15T05:08:18.192Z,16.80
2019-03-15T05:09:18.192Z,16.50
2019-03-15T05:10:18.157Z,17.30
2019-03-15T05:11:18.138Z,15.60
2019-03-15T05:12:18.107Z,15.20
2019-03-15T05:13:18.087Z,18.70
2019-03-15T05:14:18.082Z,15.50
2019-03-15T05:15:18.071Z,14.90
2019-03-15T05:16:18.026Z,17.30
2019-03-15T05:17:18.012Z,14.70
2019-03-15T05:18:17.995Z,18.80
2019-03-15T05:19:18.078Z,16.30
2019-03-15T05:20:21.032Z,19.30
2019-03-15T05:21:17.914Z,15.10
2019-03-15T05:22:18.511Z,17.40
2019-03-15T05:23:17.874Z,17.00
2019-03-15T05:24:17.871Z,17.20
2019-03-15T05:25:17.834Z,16.10
2019-03-15T05:26:19.512Z,17.20
2019-03-15T05:27:17.788Z,17.50
2019-03-15T05:28:17.769Z,16.70
2019-03-15T05:29:17.754Z,17.10
2019-03-15T05:30:17.727Z,20.30
2019-03-15T05:31:17.706Z,16.10
2019-03-15T05:32:17.728Z,16.00
2019-03-15T05:33:17.663Z,21.30
2019-03-15T05:34:17.642Z,17.70
2019-03-15T05:35:17.624Z,17.60
2019-03-15T05:36:17.621Z,18.30
2019-03-15T05:37:17.580Z,19.10
2019-03-15T05:38:17.563Z,18.90
2019-03-15T05:39:17.544Z,18.30
2019-03-15T05:40:17.527Z,19.30
2019-03-15T05:41:17.496Z,18.90
2019-03-15T05:42:17.492Z,21.70
2019-03-15T05:43:18.055Z,15.90
2019-03-15T05:44:17.429Z,19.80
2019-03-15T05:45:17.409Z,19.70
2019-03-15T05:46:17.389Z,18.30
2019-03-15T05:47:17.382Z,18.90
2019-03-15T05:48:17.371Z,19.10
2019-03-15T05:49:17.324Z,17.40
2019-03-15T05:50:17.303Z,20.50
2019-03-15T05:51:17.281Z,19.30
2019-03-15T05:52:17.260Z,20.20
2019-03-15T05:53:17.256Z,17.90
2019-03-15T05:54:17.216Z,18.00
2019-03-15T05:55:17.207Z,19.60
2019-03-15T05:56:18.060Z,18.00
2019-03-15T05:57:17.182Z,24.00
2019-03-15T05:58:17.136Z,21.10
2019-03-15T05:59:17.112Z,20.10
2019-03-15T06:00:17.090Z,18.40
2019-03-15T06:01:17.071Z,19.40
2019-03-15T06:02:17.048Z,18.30
2019-03-15T06:03:17.557Z,21.10
2019-03-15T06:04:17.008Z,17.70
2019-03-15T06:05:17.000Z,18.80
2019-03-15T06:06:16.989Z,20.00
2019-03-15T06:07:16.947Z,19.60
2019-03-15T06:08:16.949Z,19.90
2019-03-15T06:09:16.902Z,22.70
2019-03-15T06:10:16.896Z,21.00
2019-03-15T06:11:16.858Z,18.20
2019-03-15T06:12:16.846Z,16.60
2019-03-15T06:13:16.819Z,22.50
2019-03-15T06:14:16.791Z,20.50
2019-03-15T06:16:59.000Z,16.90
2019-03-15T06:17:58.980Z,18.20
2019-03-15T06:18:58.941Z,15.10
2019-03-15T06:19:58.924Z,16.10
2019-03-15T06:20:58.934Z,18.00
2019-03-15T06:22:00.522Z,17.20
2019-03-15T06:22:58.888Z,17.80
2019-03-15T06:23:58.840Z,16.10
2019-03-15T06:24:58.815Z,21.10
2019-03-15T06:25:58.812Z,20.30
2019-03-15T06:26:58.774Z,20.40
2019-03-15T06:27:58.755Z,19.10
2019-03-15T06:29:01.492Z,21.20
2019-03-15T06:29:58.726Z,18.10
2019-03-15T06:30:58.690Z,19.50
2019-03-15T06:32:00.530Z,16.30
2019-03-15T06:32:58.646Z,19.70
2019-03-15T06:33:58.623Z,16.70
2019-03-15T06:34:58.610Z,18.10
2019-03-15T06:35:58.609Z,20.40
2019-03-15T06:36:58.564Z,17.80
2019-03-15T06:37:58.542Z,16.60
2019-03-15T06:38:58.520Z,18.70
2019-03-15T06:39:58.495Z,18.00
2019-03-15T06:40:58.477Z,18.00
2019-03-15T06:41:58.475Z,15.50
2019-03-15T06:42:58.436Z,20.00
2019-03-15T06:43:58.409Z,18.10
2019-03-15T06:44:58.434Z,18.30
2019-03-15T06:45:58.370Z,18.10
2019-03-15T06:46:58.349Z,18.00
2019-03-15T06:47:58.344Z,18.60
2019-03-15T06:48:58.311Z,18.30
2019-03-15T06:49:58.284Z,17.80
2019-03-15T06:50:58.263Z,19.10
2019-03-15T06:51:58.260Z,21.00
2019-03-15T06:52:58.238Z,17.50
2019-03-15T06:54:10.894Z,18.80
2019-03-15T06:54:58.177Z,16.80
2019-03-15T06:55:58.155Z,16.70
2019-03-15T06:56:58.136Z,16.00
2019-03-15T06:57:58.134Z,17.00
2019-03-15T06:58:58.091Z,18.80
2019-03-15T06:59:59.562Z,17.40
2019-03-15T07:00:58.564Z,14.70
2019-03-15T07:01:58.560Z,17.80
2019-03-15T07:02:58.010Z,16.30
2019-03-15T07:03:58.015Z,19.00
2019-03-15T07:04:57.969Z,16.30
2019-03-15T07:07:51.996Z,16.40
2019-03-15T07:08:51.991Z,17.00
2019-03-15T07:09:51.974Z,15.80
2019-03-15T07:10:51.930Z,18.40
2019-03-15T07:11:51.907Z,17.60
2019-03-15T07:12:51.885Z,16.00
2019-03-15T07:13:51.869Z,18.40
2019-03-15T07:14:51.845Z,18.00
2019-03-15T07:15:51.852Z,13.90
2019-03-15T07:16:51.807Z,18.10
2019-03-15T07:17:51.780Z,17.00
2019-03-15T07:18:51.766Z,14.80
2019-03-15T07:19:51.738Z,16.20
2019-03-15T07:20:51.757Z,13.80
2019-03-15T07:21:51.695Z,17.90
2019-03-15T07:22:51.679Z,18.80
2019-03-15T07:23:51.655Z,14.50
2019-03-15T07:24:51.639Z,17.00
2019-03-15T07:25:53.529Z,16.00
2019-03-15T07:26:51.619Z,13.60
2019-03-15T07:27:51.571Z,14.80
2019-03-15T07:28:51.602Z,16.70
2019-03-15T07:29:51.529Z,17.40
2019-03-15T07:30:51.535Z,13.90
2019-03-15T07:31:51.487Z,13.50
2019-03-15T07:32:51.482Z,16.70
2019-03-15T07:33:52.530Z,14.50
2019-03-15T07:34:51.429Z,16.40
2019-03-15T07:35:51.417Z,13.20
2019-03-15T07:36:55.299Z,17.50
2019-03-15T07:37:51.390Z,14.00
2019-03-15T07:38:51.344Z,14.00
2019-03-15T07:39:52.057Z,18.30
2019-03-15T07:40:51.295Z,18.40
2019-03-15T07:41:51.279Z,16.00
2019-03-15T07:42:51.255Z,13.70
2019-03-15T07:43:51.255Z,16.80
2019-03-15T07:44:51.248Z,13.70
2019-03-15T07:45:51.189Z,17.10
2019-03-15T07:46:51.299Z,15.50
2019-03-15T07:47:52.032Z,16.30
2019-03-15T07:48:52.051Z,15.30
2019-03-15T07:49:51.135Z,12.80
2019-03-15T07:50:51.091Z,14.50
2019-03-15T07:51:51.066Z,15.60
2019-03-15T07:52:51.042Z,15.70
2019-03-15T07:53:52.033Z,14.50
2019-03-15T07:54:51.008Z,15.80
2019-03-15T07:55:51.001Z,14.70
2019-03-15T07:56:50.960Z,13.60
2019-03-15T07:57:50.942Z,11.80
2019-03-15T07:58:50.938Z,14.30
2019-03-15T07:59:51.572Z,14.70
2019-03-15T08:00:50.880Z,16.80
2019-03-15T08:01:52.797Z,13.90
2019-03-15T08:02:51.559Z,14.40
2019-03-15T08:03:50.824Z,11.40
2019-03-15T08:04:52.534Z,10.50
2019-03-15T08:05:50.776Z,13.60
2019-03-15T08:06:50.776Z,12.50
2019-03-15T08:07:50.732Z,13.20
2019-03-15T08:08:50.711Z,14.60
2019-03-15T08:09:51.174Z,11.40
2019-03-15T08:10:50.669Z,12.90
2019-03-15T08:11:50.657Z,15.50
2019-03-15T08:12:50.640Z,13.30
2019-03-15T08:13:50.601Z,12.40
2019-03-15T08:14:50.584Z,10.90
2019-03-15T08:15:50.559Z,12.00
2019-03-15T08:16:51.066Z,12.20
2019-03-15T08:17:51.068Z,12.50
2019-03-15T08:18:50.515Z,12.60
2019-03-15T08:19:50.492Z,11.40
2019-03-15T08:20:50.469Z,14.10
2019-03-15T08:21:50.443Z,12.10
2019-03-15T08:22:50.443Z,11.10
2019-03-15T08:23:50.401Z,11.80
2019-03-15T08:24:51.672Z,9.50
2019-03-15T08:25:50.685Z,11.10
2019-03-15T08:26:50.434Z,12.80
2019-03-15T08:27:50.333Z,9.30
2019-03-15T08:28:50.289Z,12.10
2019-03-15T08:29:52.602Z,14.00
2019-03-15T08:30:50.246Z,9.40
2019-03-15T08:31:50.234Z,10.00
2019-03-15T08:32:50.204Z,10.10
2019-03-15T08:33:50.202Z,8.60
2019-03-15T08:34:50.166Z,8.30
2019-03-15T08:35:50.142Z,8.20
2019-03-15T08:36:50.123Z,10.60
2019-03-15T08:37:50.124Z,8.80
2019-03-15T08:38:50.108Z,9.80
2019-03-15T08:39:50.066Z,11.40
2019-03-15T08:40:50.057Z,10.00
2019-03-15T08:41:50.017Z,9.90
2019-03-15T08:42:50.001Z,8.50
2019-03-15T08:43:50.579Z,10.30
2019-03-15T08:44:49.975Z,8.20
2019-03-15T08:45:49.936Z,9.90
2019-03-15T08:46:49.919Z,9.10
2019-03-15T08:47:49.994Z,7.20
2019-03-15T08:48:49.888Z,9.50
2019-03-15T08:49:49.857Z,7.50
2019-03-15T08:50:49.847Z,8.40
2019-03-15T08:52:03.085Z,6.90
2019-03-15T08:52:49.793Z,6.80
2019-03-15T08:53:49.772Z,8.50
2019-03-15T08:54:49.770Z,10.00
2019-03-15T08:55:49.731Z,7.30
2019-03-15T08:56:49.756Z,7.80
2019-03-15T08:57:49.690Z,7.60
2019-03-15T08:58:49.673Z,8.70
2019-03-15T08:59:57.032Z,7.00
2019-03-15T09:00:49.679Z,7.10
2019-03-15T09:01:49.608Z,6.90
2019-03-15T09:02:50.542Z,7.10
2019-03-15T09:03:49.566Z,6.60
2019-03-15T09:04:50.550Z,7.10
2019-03-15T09:05:49.532Z,8.50
2019-03-15T09:06:49.510Z,6.80
2019-03-15T09:07:49.509Z,7.30
2019-03-15T09:08:49.469Z,7.00
2019-03-15T09:09:49.448Z,7.20
2019-03-15T09:10:49.436Z,7.20
2019-03-15T09:11:49.409Z,6.70
2019-03-15T09:12:49.390Z,6.90
2019-03-15T09:13:49.520Z,6.70
2019-03-15T09:14:49.351Z,6.10
2019-03-15T09:15:49.331Z,6.20
2019-03-15T09:16:49.313Z,5.90
2019-03-15T09:17:49.290Z,5.40
2019-03-15T09:18:49.291Z,6.60
2019-03-15T09:19:49.253Z,5.60
2019-03-15T09:20:49.227Z,5.40
2019-03-15T09:21:49.228Z,5.50
2019-03-15T09:22:49.196Z,5.50
2019-03-15T09:23:49.165Z,6.00
2019-03-15T09:24:49.156Z,5.30
2019-03-15T09:25:49.131Z,5.80
2019-03-15T09:26:49.109Z,5.50
2019-03-15T09:27:49.138Z,6.90
2019-03-15T09:28:51.048Z,5.80
2019-03-15T09:29:49.053Z,5.30
2019-03-15T09:30:49.037Z,5.50
2019-03-15T09:31:49.018Z,5.70
2019-03-15T09:32:48.994Z,5.00
2019-03-15T09:33:48.997Z,5.00
2019-03-15T09:34:48.963Z,4.90
2019-03-15T09:35:48.953Z,5.30
2019-03-15T09:36:50.347Z,5.00
2019-03-15T09:37:48.926Z,5.10
2019-03-15T09:38:48.892Z,5.30
2019-03-15T09:39:48.855Z,5.20
2019-03-15T09:40:48.835Z,5.20
2019-03-15T09:41:48.824Z,5.20
2019-03-15T09:42:48.798Z,5.60
2019-03-15T09:43:48.801Z,6.00
2019-03-15T09:44:48.757Z,5.60
2019-03-15T09:45:48.743Z,5.40
2019-03-15T09:46:48.722Z,5.30
2019-03-15T09:47:48.699Z,5.90
2019-03-15T09:48:48.680Z,4.80
2019-03-15T09:49:48.697Z,5.10
2019-03-15T09:50:51.442Z,6.40
2019-03-15T09:51:48.660Z,5.80
2019-03-15T09:52:50.552Z,6.20
2019-03-15T09:53:48.582Z,6.80
2019-03-15T09:54:48.567Z,7.60
2019-03-15T09:55:49.091Z,7.00
2019-03-15T09:56:48.527Z,8.20
2019-03-15T09:57:48.519Z,7.10
2019-03-15T09:58:48.495Z,7.00
2019-03-15T09:59:48.469Z,7.50
2019-03-15T10:00:49.554Z,7.30
2019-03-15T10:01:48.428Z,7.80
2019-03-15T10:02:48.407Z,7.20
2019-03-15T10:03:48.424Z,6.30
2019-03-15T10:04:48.377Z,7.10
2019-03-15T10:05:48.376Z,7.40
2019-03-15T10:06:48.337Z,8.60
2019-03-15T10:07:48.314Z,9.40
2019-03-15T10:08:48.318Z,9.40
2019-03-15T10:09:48.291Z,9.90
2019-03-15T10:10:49.330Z,9.10
2019-03-15T10:11:48.240Z,9.60
2019-03-15T10:12:48.240Z,10.80
2019-03-15T10:13:48.201Z,9.90
2019-03-15T10:14:48.181Z,9.50
2019-03-15T10:15:48.295Z,9.90
2019-03-15T10:16:48.284Z,8.20
2019-03-15T10:17:48.146Z,9.60
2019-03-15T10:18:50.564Z,10.40
2019-03-15T10:19:48.083Z,11.30
2019-03-15T10:20:48.072Z,9.60
2019-03-15T10:21:48.059Z,11.90
2019-03-15T10:23:03.979Z,11.90
2019-03-15T10:23:48.007Z,11.20
2019-03-15T10:24:47.989Z,10.30
2019-03-15T10:25:51.156Z,11.60
2019-03-15T10:26:47.967Z,12.40
2019-03-15T10:27:47.937Z,11.70
2019-03-15T10:28:47.917Z,13.70
2019-03-15T10:29:47.903Z,10.00
2019-03-15T10:30:47.872Z,11.50
2019-03-15T10:31:47.857Z,14.20
2019-03-15T10:32:47.856Z,12.40
2019-03-15T10:33:50.806Z,13.70
2019-03-15T10:34:47.799Z,13.00
2019-03-15T10:35:47.777Z,15.10
2019-03-15T10:36:49.562Z,16.00
2019-03-15T10:37:47.741Z,14.40
2019-03-15T10:38:47.738Z,13.20
2019-03-15T10:39:47.702Z,13.50
2019-03-15T10:40:47.682Z,13.20
2019-03-15T10:41:47.663Z,14.70
2019-03-15T10:42:47.642Z,14.40
2019-03-15T10:43:47.629Z,13.40
2019-03-15T10:44:47.620Z,13.70
2019-03-15T10:45:47.585Z,13.00
2019-03-15T10:46:47.565Z,14.20
2019-03-15T10:47:48.080Z,13.40
2019-03-15T10:48:47.546Z,13.90
2019-03-15T10:49:47.538Z,13.20
2019-03-15T10:50:47.501Z,15.40
2019-03-15T10:51:47.468Z,16.80
2019-03-15T10:52:47.454Z,16.30
2019-03-15T10:53:47.432Z,14.70
2019-03-15T10:54:47.430Z,16.20
2019-03-15T10:55:59.505Z,17.40
2019-03-15T10:56:47.383Z,17.50
2019-03-15T10:57:47.357Z,16.20
2019-03-15T10:58:47.332Z,18.80
2019-03-15T10:59:47.338Z,19.10
2019-03-15T11:00:47.290Z,18.30
2019-03-15T11:01:47.279Z,17.70
2019-03-15T11:02:47.262Z,18.60
2019-03-15T11:03:47.249Z,20.50
2019-03-15T11:04:48.108Z,17.30
2019-03-15T11:05:47.223Z,19.10
2019-03-15T11:06:47.179Z,17.90
2019-03-15T11:07:47.160Z,19.90
2019-03-15T11:08:47.151Z,19.80
2019-03-15T11:09:47.127Z,20.80
2019-03-15T11:10:47.109Z,20.80
2019-03-15T11:11:47.108Z,19.00
2019-03-15T11:12:47.064Z,18.40
2019-03-15T11:13:47.053Z,20.20
2019-03-15T11:14:47.031Z,18.30
2019-03-15T11:15:47.055Z,18.50
2019-03-15T11:16:47.004Z,21.00
2019-03-15T11:17:47.003Z,20.90
2019-03-15T11:18:46.954Z,18.00
2019-03-15T11:19:46.988Z,19.60
2019-03-15T11:20:46.946Z,17.80
2019-03-15T11:21:47.647Z,21.50
2019-03-15T11:22:46.873Z,19.20
2019-03-15T11:23:46.862Z,22.00
2019-03-15T11:24:46.839Z,20.40
2019-03-15T11:25:46.821Z,17.80
2019-03-15T11:26:46.821Z,19.60
2019-03-15T11:27:46.794Z,22.40
2019-03-15T11:28:46.767Z,21.40
2019-03-15T11:29:46.753Z,21.80
2019-03-15T11:30:46.728Z,22.90
2019-03-15T11:31:46.725Z,19.50
2019-03-15T11:32:46.692Z,21.90
2019-03-15T11:33:47.558Z,21.30
2019-03-15T11:34:46.649Z,19.90
2019-03-15T11:35:46.633Z,21.20
2019-03-15T11:36:57.738Z,20.50
2019-03-15T11:37:46.614Z,20.90
2019-03-15T11:38:46.581Z,23.20
2019-03-15T11:39:46.576Z,20.10
2019-03-15T11:40:46.540Z,20.10
2019-03-15T11:41:46.526Z,19.40
2019-03-15T11:42:46.508Z,19.40
2019-03-15T11:43:46.483Z,20.70
2019-03-15T11:44:46.467Z,20.10
2019-03-15T11:45:46.478Z,21.30
2019-03-15T11:46:46.486Z,20.30
2019-03-15T11:48:02.596Z,18.30
2019-03-15T11:48:47.124Z,19.40
2019-03-15T11:49:48.076Z,20.50
2019-03-15T11:50:46.356Z,19.10
2019-03-15T11:51:46.362Z,19.20
2019-03-15T11:52:47.078Z,15.70
2019-03-15T11:53:46.303Z,16.50
2019-03-15T11:54:49.586Z,17.60
2019-03-15T11:55:46.256Z,16.20
2019-03-15T11:56:46.245Z,12.90
2019-03-15T11:57:46.245Z,14.90
2019-03-15T11:58:46.216Z,15.10
2019-03-15T11:59:46.187Z,15.70
2019-03-15T12:00:46.171Z,14.10
2019-03-15T12:01:46.165Z,13.20
2019-03-15T12:02:46.133Z,13.50
2019-03-15T12:03:52.910Z,15.20
2019-03-15T12:04:46.109Z,14.00
2019-03-15T12:05:46.093Z,13.30
2019-03-15T12:06:46.074Z,12.50
2019-03-15T12:07:46.039Z,11.60
2019-03-15T12:08:46.034Z,13.10
2019-03-15T12:09:46.002Z,11.20
2019-03-15T12:10:45.986Z,11.10
2019-03-15T12:11:45.967Z,13.00
2019-03-15T12:12:45.975Z,10.80
2019-03-15T12:13:45.930Z,13.50
2019-03-15T12:14:45.923Z,12.20
2019-03-15T12:15:45.901Z,12.20
2019-03-15T12:16:45.894Z,13.90
2019-03-15T12:17:45.869Z,10.90
2019-03-15T12:18:45.867Z,11.30
2019-03-15T12:19:45.822Z,10.60
2019-03-15T12:20:49.003Z,13.50
2019-03-15T12:21:45.791Z,12.10
2019-03-15T12:22:45.776Z,11.70
2019-03-15T12:23:45.779Z,11.90
2019-03-15T12:24:45.761Z,12.80
2019-03-15T12:25:47.610Z,12.50
2019-03-15T12:26:45.709Z,14.10
2019-03-15T12:27:45.728Z,13.00
2019-03-15T12:28:45.671Z,13.30
2019-03-15T12:29:45.654Z,12.80
2019-03-15T12:30:45.649Z,12.80
2019-03-15T12:31:45.618Z,11.50
2019-03-15T12:32:45.604Z,13.20
2019-03-15T12:34:13.171Z,10.40
2019-03-15T12:34:45.561Z,10.70
2019-03-15T12:35:45.571Z,10.50
2019-03-15T12:36:45.581Z,9.60
2019-03-15T12:37:45.521Z,10.80
2019-03-15T12:38:45.495Z,12.00
2019-03-15T12:39:45.479Z,9.90
2019-03-15T12:40:45.492Z,10.00
2019-03-15T12:41:45.453Z,9.00
2019-03-15T12:42:45.425Z,11.10
2019-03-15T12:43:45.411Z,10.10
2019-03-15T12:44:45.399Z,10.20
2019-03-15T12:45:45.406Z,8.60
2019-03-15T12:46:46.132Z,10.10
2019-03-15T12:47:46.095Z,7.50
2019-03-15T12:48:45.334Z,9.50
2019-03-15T12:49:45.322Z,8.90
2019-03-15T12:50:45.307Z,8.90
2019-03-15T12:51:45.300Z,8.30
2019-03-15T12:52:48.019Z,9.20
2019-03-15T12:53:45.251Z,8.80
2019-03-15T12:54:45.233Z,10.20
2019-03-15T12:55:45.217Z,11.10
2019-03-15T12:56:53.690Z,10.70
2019-03-15T12:57:45.203Z,9.50
2019-03-15T12:58:45.166Z,9.00
2019-03-15T12:59:45.184Z,10.50